createdAt,value
2022-08-17T00:00:35.042Z,11.60
2022-08-17T00:03:10.015Z,11.70
2022-08-17T00:05:42.014Z,11.57
2022-08-17T00:08:10.236Z,11.57
2022-08-17T00:10:40.323Z,11.63
2022-08-17T00:13:09.880Z,11.93
2022-08-17T00:15:38.451Z,12.73
2022-08-17T00:19:01.685Z,11.77
2022-08-17T00:20:54.584Z,12.05
2022-08-17T00:23:23.058Z,12.70
2022-08-17T00:25:53.166Z,12.55
2022-08-17T00:28:21.211Z,12.13
2022-08-17T00:30:53.521Z,12.43
2022-08-17T00:33:24.372Z,12.85
2022-08-17T00:35:52.487Z,12.52
2022-08-17T00:38:20.521Z,12.18
2022-08-17T00:40:51.842Z,11.70
2022-08-17T00:43:30.471Z,11.77
2022-08-17T00:45:58.950Z,11.60
2022-08-17T00:48:29.839Z,11.82
2022-08-17T00:51:01.634Z,12.00
2022-08-17T00:53:31.628Z,11.80
2022-08-17T00:56:01.622Z,10.80
2022-08-17T00:58:36.377Z,10.80
2022-08-17T01:01:05.377Z,10.90
2022-08-17T01:03:33.670Z,10.93
2022-08-17T01:06:02.227Z,10.77
2022-08-17T01:08:31.549Z,10.70
2022-08-17T01:11:02.355Z,10.83
2022-08-17T01:13:40.766Z,11.30
2022-08-17T01:16:15.932Z,10.90
2022-08-17T01:18:45.342Z,10.50
2022-08-17T01:21:17.579Z,10.57
2022-08-17T01:23:46.810Z,10.57
2022-08-17T01:26:14.783Z,10.30
2022-08-17T01:28:53.934Z,9.90
2022-08-17T01:31:25.402Z,10.55
2022-08-17T01:33:53.285Z,9.63
2022-08-17T01:36:21.215Z,9.57
2022-08-17T01:38:50.524Z,9.70
2022-08-17T01:41:18.666Z,10.00
2022-08-17T01:43:49.562Z,9.88
2022-08-17T01:46:21.969Z,9.57
2022-08-17T01:48:51.195Z,9.93
2022-08-17T01:51:19.791Z,9.20
2022-08-17T01:53:53.160Z,9.35
2022-08-17T01:56:24.623Z,9.73
2022-08-17T01:58:52.623Z,9.40
2022-08-17T02:01:28.027Z,9.52
2022-08-17T02:04:00.586Z,10.00
2022-08-17T02:06:31.318Z,9.70
2022-08-17T02:09:16.706Z,9.65
2022-08-17T02:11:46.152Z,9.48
2022-08-17T02:14:14.671Z,9.20
2022-08-17T02:16:43.019Z,9.85
2022-08-17T02:19:12.857Z,9.45
2022-08-17T02:21:42.250Z,9.05
2022-08-17T02:24:11.885Z,9.43
2022-08-17T02:26:41.137Z,9.88
2022-08-17T02:29:09.020Z,8.73
2022-08-17T02:31:37.828Z,9.30
2022-08-17T02:34:06.236Z,9.40
2022-08-17T02:36:35.249Z,8.80
2022-08-17T02:39:04.211Z,9.73
2022-08-17T02:41:32.073Z,9.30
2022-08-17T02:44:01.424Z,9.80
2022-08-17T02:46:31.021Z,9.48
2022-08-17T02:48:58.954Z,11.60
2022-08-17T02:51:27.400Z,9.38
2022-08-17T02:54:35.752Z,9.52
2022-08-17T02:56:43.497Z,9.10
2022-08-17T02:59:12.733Z,10.05
2022-08-17T03:01:40.884Z,9.17
2022-08-17T03:04:08.830Z,9.52
2022-08-17T03:06:37.387Z,10.70
2022-08-17T03:09:05.368Z,9.60
2022-08-17T03:11:33.256Z,9.13
2022-08-17T03:14:00.976Z,8.93
2022-08-17T03:16:30.232Z,9.00
2022-08-17T03:18:58.071Z,9.32
2022-08-17T03:21:25.984Z,9.80
2022-08-17T03:23:54.435Z,9.10
2022-08-17T03:26:22.570Z,9.48
2022-08-17T03:28:50.441Z,9.45
2022-08-17T03:31:18.674Z,10.02
2022-08-17T03:33:47.953Z,9.33
2022-08-17T03:36:15.808Z,8.95
2022-08-17T03:38:43.705Z,11.35
2022-08-17T03:41:13.938Z,12.10
2022-08-17T03:43:41.801Z,10.73
2022-08-17T03:46:35.069Z,9.35
2022-08-17T03:49:23.557Z,9.65
2022-08-17T03:52:08.964Z,9.48
2022-08-17T03:54:54.297Z,9.55
2022-08-17T03:57:22.421Z,10.20
2022-08-17T03:59:50.675Z,9.23
2022-08-17T04:02:21.215Z,10.15
2022-08-17T04:04:51.316Z,9.20
2022-08-17T04:07:19.841Z,9.25
2022-08-17T04:09:47.735Z,8.77
2022-08-17T04:12:16.576Z,9.03
2022-08-17T04:14:52.233Z,8.65
2022-08-17T04:17:23.628Z,9.70
2022-08-17T04:19:53.223Z,8.48
2022-08-17T04:22:30.152Z,8.95
2022-08-17T04:25:05.170Z,8.25
2022-08-17T04:27:33.131Z,9.07
2022-08-17T04:30:01.082Z,8.43
2022-08-17T04:33:04.735Z,10.23
2022-08-17T04:35:21.207Z,8.25
2022-08-17T04:37:49.263Z,18.52
2022-08-17T04:40:35.117Z,9.55
2022-08-17T04:43:05.046Z,8.27
2022-08-17T04:45:32.981Z,8.48
2022-08-17T04:48:01.281Z,8.25
2022-08-17T04:50:30.679Z,9.45
2022-08-17T04:52:58.709Z,8.93
2022-08-17T04:55:26.971Z,9.90
2022-08-17T04:57:54.814Z,9.40
2022-08-17T05:00:25.632Z,9.60
2022-08-17T05:02:55.932Z,10.98
2022-08-17T05:05:26.515Z,11.02
2022-08-17T05:07:57.511Z,10.05
2022-08-17T05:10:27.584Z,9.02
2022-08-17T05:12:59.588Z,8.65
2022-08-17T05:15:28.008Z,10.63
2022-08-17T05:17:56.101Z,8.95
2022-08-17T05:20:24.826Z,9.07
2022-08-17T05:22:54.441Z,9.18
2022-08-17T05:25:25.856Z,8.25
2022-08-17T05:27:55.097Z,7.22
2022-08-17T05:30:24.343Z,8.13
2022-08-17T05:32:53.997Z,8.13
2022-08-17T05:35:22.594Z,9.07
2022-08-17T05:37:50.758Z,9.88
2022-08-17T05:40:19.933Z,8.70
2022-08-17T05:42:49.802Z,9.93
2022-08-17T05:45:18.946Z,8.57
2022-08-17T05:48:08.128Z,8.43
2022-08-17T05:50:45.179Z,7.93
2022-08-17T05:53:23.863Z,8.38
2022-08-17T05:56:13.119Z,8.25
2022-08-17T05:59:04.136Z,7.93
2022-08-17T06:01:39.858Z,7.93
2022-08-17T06:04:17.865Z,7.60
2022-08-17T06:06:50.710Z,7.60
2022-08-17T06:09:34.175Z,7.95
2022-08-17T06:12:07.803Z,7.55
2022-08-17T06:14:53.417Z,8.77
2022-08-17T06:17:22.965Z,7.40
2022-08-17T06:19:54.511Z,10.77
2022-08-17T06:22:25.124Z,7.27
2022-08-17T06:24:56.720Z,7.95
2022-08-17T06:27:30.991Z,7.13
2022-08-17T06:30:09.145Z,7.97
2022-08-17T06:32:38.146Z,8.60
2022-08-17T06:35:08.319Z,9.40
2022-08-17T06:37:50.538Z,12.90
2022-08-17T06:40:33.791Z,9.13
2022-08-17T06:43:12.849Z,7.63
2022-08-17T06:45:49.098Z,7.75
2022-08-17T06:48:24.287Z,8.98
2022-08-17T06:50:55.054Z,8.40
2022-08-17T06:53:26.231Z,7.60
2022-08-17T06:55:59.842Z,7.55
2022-08-17T06:58:31.257Z,11.95
2022-08-17T07:01:05.690Z,7.72
2022-08-17T07:03:37.650Z,8.55
2022-08-17T07:06:09.242Z,6.77
2022-08-17T07:08:46.176Z,8.75
2022-08-17T07:11:17.246Z,10.80
2022-08-17T07:13:51.701Z,7.28
2022-08-17T07:16:27.849Z,9.90
2022-08-17T07:18:57.294Z,6.90
2022-08-17T07:21:38.604Z,7.77
2022-08-17T07:24:26.329Z,8.77
2022-08-17T07:27:07.436Z,8.02
2022-08-17T07:29:40.285Z,7.93
2022-08-17T07:32:11.698Z,10.57
2022-08-17T07:35:23.054Z,8.88
2022-08-17T07:37:54.466Z,9.15
2022-08-17T07:40:26.396Z,6.20
2022-08-17T07:43:22.340Z,7.80
2022-08-17T07:46:18.374Z,7.18
2022-08-17T07:48:50.901Z,8.73
2022-08-17T07:51:22.270Z,7.25
2022-08-17T07:53:50.309Z,9.13
2022-08-17T07:56:40.409Z,8.75
2022-08-17T07:59:11.397Z,14.23
2022-08-17T08:01:42.024Z,8.45
2022-08-17T08:04:58.840Z,9.15
2022-08-17T08:07:26.956Z,11.40
2022-08-17T08:10:04.914Z,7.38
2022-08-17T08:12:36.945Z,8.43
2022-08-17T08:15:13.040Z,7.22
2022-08-17T08:17:51.274Z,6.75
2022-08-17T08:20:51.660Z,5.97
2022-08-17T08:23:21.720Z,6.53
2022-08-17T08:26:00.434Z,6.67
2022-08-17T08:28:35.032Z,7.70
2022-08-17T08:31:06.564Z,5.80
2022-08-17T08:33:47.883Z,7.70
2022-08-17T08:37:12.568Z,7.85
2022-08-17T08:39:20.753Z,5.45
2022-08-17T08:41:54.618Z,7.20
2022-08-17T08:44:59.798Z,6.47
2022-08-17T08:47:35.388Z,5.78
2022-08-17T08:50:36.996Z,4.75
2022-08-17T08:53:14.307Z,7.35
2022-08-17T08:55:49.456Z,6.13
2022-08-17T08:58:31.604Z,7.47
2022-08-17T09:01:25.626Z,5.93
2022-08-17T09:04:18.346Z,9.95
2022-08-17T09:06:56.458Z,5.10
2022-08-17T09:09:37.007Z,10.50
2022-08-17T09:12:10.076Z,6.20
2022-08-17T09:14:46.592Z,5.40
2022-08-17T09:17:19.136Z,5.65
2022-08-17T09:19:50.270Z,5.97
2022-08-17T09:22:31.343Z,7.10
2022-08-17T09:25:08.102Z,6.28
2022-08-17T09:27:52.041Z,6.07
2022-08-17T09:30:20.688Z,6.93
2022-08-17T09:32:55.345Z,4.97
2022-08-17T09:35:33.613Z,6.70
2022-08-17T09:38:16.511Z,6.85
2022-08-17T09:40:50.464Z,5.33
2022-08-17T09:43:27.252Z,8.63
2022-08-17T09:45:58.169Z,10.23
2022-08-17T09:48:28.699Z,9.95
2022-08-17T09:51:04.456Z,5.23
2022-08-17T09:53:34.095Z,5.75
2022-08-17T09:56:12.509Z,5.60
2022-08-17T09:58:51.626Z,5.78
2022-08-17T10:01:29.107Z,6.88
2022-08-17T10:04:18.770Z,7.10
2022-08-17T10:06:52.772Z,5.60
2022-08-17T10:09:29.987Z,6.53
2022-08-17T10:12:21.493Z,4.50
2022-08-17T10:15:13.368Z,4.57
2022-08-17T10:17:46.505Z,4.53
2022-08-17T10:20:18.776Z,5.15
2022-08-17T10:23:06.826Z,4.30
2022-08-17T10:26:09.959Z,5.78
2022-08-17T10:28:43.520Z,4.80
2022-08-17T10:34:19.152Z,5.55
2022-08-17T10:36:52.662Z,4.70
2022-08-17T10:39:27.337Z,5.03
2022-08-17T10:41:58.797Z,4.53
2022-08-17T10:44:46.830Z,8.68
2022-08-17T10:47:16.700Z,7.80
2022-08-17T10:49:48.050Z,4.68
2022-08-17T10:52:48.743Z,6.03
2022-08-17T10:55:18.929Z,5.07
2022-08-17T10:57:49.597Z,4.57
2022-08-17T11:00:59.229Z,5.20
2022-08-17T11:03:27.694Z,4.95
2022-08-17T11:06:01.398Z,6.35
2022-08-17T11:09:00.725Z,8.10
2022-08-17T11:11:52.693Z,7.90
2022-08-17T11:14:50.122Z,7.32
2022-08-17T11:17:41.498Z,6.75
2022-08-17T11:20:32.393Z,8.02
2022-08-17T11:23:18.380Z,9.00
2022-08-17T11:25:50.545Z,9.50
2022-08-17T11:28:21.062Z,9.77
2022-08-17T11:30:50.878Z,8.27
2022-08-17T11:33:53.539Z,13.60
2022-08-17T11:36:34.689Z,12.38
2022-08-17T11:39:06.506Z,12.60
2022-08-17T11:41:41.693Z,13.52
2022-08-17T11:44:24.069Z,12.63
2022-08-17T11:47:27.666Z,37.33
2022-08-17T11:50:27.880Z,13.70
2022-08-17T11:52:56.209Z,13.73
2022-08-17T11:56:13.272Z,11.88
2022-08-17T11:58:42.834Z,15.13
2022-08-17T12:01:13.798Z,16.33
2022-08-17T12:03:55.812Z,12.80
2022-08-17T12:06:49.426Z,11.97
2022-08-17T12:09:20.131Z,12.57
2022-08-17T12:11:55.382Z,11.82
2022-08-17T12:15:08.952Z,18.00
2022-08-17T12:17:51.901Z,13.95
2022-08-17T12:20:23.214Z,12.90
2022-08-17T12:22:57.607Z,12.32
2022-08-17T12:25:31.386Z,12.73
2022-08-17T12:28:06.070Z,17.97
2022-08-17T12:30:36.412Z,14.23
2022-08-17T12:33:04.455Z,11.43
2022-08-17T12:35:35.360Z,13.13
2022-08-17T12:38:06.453Z,12.13
2022-08-17T12:40:55.660Z,13.65
2022-08-17T12:43:29.219Z,12.30
2022-08-17T12:46:01.157Z,13.18
2022-08-17T12:48:59.618Z,14.15
2022-08-17T12:51:29.385Z,14.80
2022-08-17T12:53:58.638Z,14.30
2022-08-17T12:56:26.695Z,14.30
2022-08-17T12:58:55.582Z,42.60
2022-08-17T13:01:25.141Z,14.03
2022-08-17T13:03:57.215Z,13.45
2022-08-17T13:06:31.461Z,20.17
2022-08-17T13:09:10.165Z,15.07
2022-08-17T13:11:48.109Z,14.68
2022-08-17T13:14:18.350Z,14.73
2022-08-17T13:16:52.790Z,15.55
2022-08-17T13:19:40.150Z,14.82
2022-08-17T13:22:12.762Z,17.70
2022-08-17T13:24:53.050Z,17.00
2022-08-17T13:27:23.046Z,18.38
2022-08-17T13:29:53.940Z,16.55
2022-08-17T13:32:24.424Z,16.42
2022-08-17T13:35:11.857Z,19.50
2022-08-17T13:37:58.430Z,17.42
2022-08-17T13:40:44.094Z,16.13
2022-08-17T13:43:12.981Z,17.20
2022-08-17T13:45:52.951Z,16.47
2022-08-17T13:48:23.910Z,17.47
2022-08-17T13:51:07.184Z,19.63
2022-08-17T13:53:50.515Z,19.10
2022-08-17T13:56:45.239Z,15.80
2022-08-17T13:59:15.494Z,17.20
2022-08-17T14:01:48.522Z,18.02
2022-08-17T14:04:25.516Z,19.50
2022-08-17T14:06:57.104Z,20.13
2022-08-17T14:09:34.861Z,17.85
2022-08-17T14:12:09.648Z,21.17
2022-08-17T14:14:37.666Z,21.35
2022-08-17T14:17:06.189Z,20.42
2022-08-17T14:19:35.922Z,17.70
2022-08-17T14:22:04.937Z,19.43
2022-08-17T14:24:35.102Z,20.13
2022-08-17T14:27:05.520Z,20.52
2022-08-17T14:29:35.196Z,19.75
2022-08-17T14:32:08.489Z,20.07
2022-08-17T14:34:36.345Z,19.23
2022-08-17T14:37:04.332Z,22.83
2022-08-17T14:39:32.773Z,24.88
2022-08-17T14:42:02.100Z,21.58
2022-08-17T14:44:29.976Z,20.42
2022-08-17T14:46:59.260Z,21.45
2022-08-17T14:49:28.075Z,21.20
2022-08-17T14:51:55.880Z,24.00
2022-08-17T14:54:33.566Z,23.80
2022-08-17T14:57:22.877Z,28.55
2022-08-17T14:59:54.245Z,19.23
2022-08-17T15:02:30.251Z,16.98
2022-08-17T15:05:02.556Z,17.10
2022-08-17T15:07:31.361Z,15.98
2022-08-17T15:10:01.339Z,17.00
2022-08-17T15:12:33.274Z,18.35
2022-08-17T15:15:04.577Z,16.90
2022-08-17T15:17:44.817Z,22.50
2022-08-17T15:20:15.798Z,20.40
2022-08-17T15:22:44.399Z,23.00
2022-08-17T15:25:13.132Z,25.48
2022-08-17T15:27:41.267Z,26.73
2022-08-17T15:30:10.508Z,27.48
2022-08-17T15:32:46.847Z,27.10
2022-08-17T15:35:28.296Z,27.50
2022-08-17T15:37:58.494Z,28.77
2022-08-17T15:40:26.693Z,28.30
2022-08-17T15:42:55.005Z,30.93
2022-08-17T15:45:26.693Z,30.95
2022-08-17T15:47:56.045Z,36.13
2022-08-17T15:50:24.027Z,36.08
2022-08-17T15:53:00.855Z,36.08
2022-08-17T15:55:30.411Z,35.83
2022-08-17T15:57:58.385Z,34.13
2022-08-17T16:00:28.411Z,35.78
2022-08-17T16:03:46.438Z,36.17
2022-08-17T16:05:47.781Z,34.83
2022-08-17T16:08:20.682Z,35.03
2022-08-17T16:10:49.904Z,33.35
2022-08-17T16:13:18.294Z,31.90
2022-08-17T16:15:56.648Z,29.20
2022-08-17T16:18:31.029Z,29.25
2022-08-17T16:21:21.465Z,28.50
2022-08-17T16:23:51.318Z,27.95
2022-08-17T16:26:19.922Z,41.25
2022-08-17T16:28:47.838Z,35.65
2022-08-17T16:31:15.888Z,32.60
2022-08-17T16:33:56.889Z,34.83
2022-08-17T16:36:33.497Z,36.88
2022-08-17T16:39:01.629Z,37.08
2022-08-17T16:41:44.983Z,41.85
2022-08-17T16:44:15.316Z,41.70
2022-08-17T16:46:45.740Z,41.65
2022-08-17T16:49:25.756Z,42.53
2022-08-17T16:52:06.063Z,45.80
2022-08-17T16:54:35.503Z,45.83
2022-08-17T16:57:05.088Z,41.17
2022-08-17T16:59:41.042Z,38.67
2022-08-17T17:02:12.869Z,37.92
2022-08-17T17:04:46.650Z,36.58
2022-08-17T17:07:25.920Z,39.05
2022-08-17T17:09:55.484Z,37.73
2022-08-17T17:13:00.942Z,38.35
2022-08-17T17:15:12.831Z,39.30
2022-08-17T17:17:41.257Z,40.45
2022-08-17T17:20:13.957Z,40.78
2022-08-17T17:22:47.990Z,46.17
2022-08-17T17:25:24.020Z,49.53
2022-08-17T17:27:58.908Z,45.55
2022-08-17T17:30:31.053Z,49.20
2022-08-17T17:33:03.046Z,52.67
2022-08-17T17:35:36.962Z,53.92
2022-08-17T17:38:06.519Z,54.15
2022-08-17T17:40:38.456Z,55.78
2022-08-17T17:43:37.255Z,56.63
2022-08-17T17:46:27.960Z,57.58
2022-08-17T17:48:55.213Z,57.23
2022-08-17T17:51:54.826Z,58.58
2022-08-17T17:54:28.053Z,58.63
2022-08-17T17:57:01.466Z,91.77
2022-08-17T17:59:34.914Z,57.42
2022-08-17T18:02:07.602Z,57.88
2022-08-17T18:04:41.332Z,57.47
2022-08-17T18:07:19.916Z,58.65
2022-08-17T18:10:01.056Z,55.25
2022-08-17T18:12:35.705Z,54.67
2022-08-17T18:15:23.705Z,54.72
2022-08-17T18:18:03.717Z,51.90
2022-08-17T18:20:43.223Z,50.22
2022-08-17T18:23:27.691Z,50.85
2022-08-17T18:25:56.352Z,51.13
2022-08-17T18:28:26.250Z,50.50
2022-08-17T18:31:13.069Z,50.47
2022-08-17T18:33:43.665Z,53.08
2022-08-17T18:36:12.474Z,51.70
2022-08-17T18:38:43.186Z,51.47
2022-08-17T18:41:23.676Z,50.72
2022-08-17T18:44:01.255Z,50.65
2022-08-17T18:46:33.073Z,53.25
2022-08-17T18:49:02.631Z,53.37
2022-08-17T18:51:40.981Z,52.97
2022-08-17T18:54:21.312Z,54.72
2022-08-17T18:56:54.389Z,76.10
2022-08-17T18:59:40.263Z,59.67
2022-08-17T19:02:43.830Z,54.50
2022-08-17T19:05:27.755Z,52.58
2022-08-17T19:07:55.763Z,54.33
2022-08-17T19:10:28.669Z,53.78
2022-08-17T19:13:00.599Z,53.60
2022-08-17T19:15:32.366Z,51.13
2022-08-17T19:18:04.704Z,52.90
2022-08-17T19:20:35.933Z,54.17
2022-08-17T19:23:09.604Z,55.28
2022-08-17T19:25:42.242Z,53.00
2022-08-17T19:28:22.543Z,53.22
2022-08-17T19:30:55.624Z,51.97
2022-08-17T19:33:23.729Z,52.75
2022-08-17T19:36:00.443Z,55.80
2022-08-17T19:38:37.282Z,56.53
2022-08-17T19:41:12.595Z,54.25
2022-08-17T19:43:52.524Z,58.60
2022-08-17T19:46:26.175Z,56.15
2022-08-17T19:49:00.190Z,55.67
2022-08-17T19:51:33.442Z,54.13
2022-08-17T19:54:07.134Z,57.43
2022-08-17T19:56:45.281Z,57.10
2022-08-17T19:59:17.431Z,56.97
2022-08-17T20:01:50.744Z,53.97
2022-08-17T20:04:38.589Z,53.10
2022-08-17T20:07:08.848Z,53.25
2022-08-17T20:09:40.163Z,52.30
2022-08-17T20:12:12.461Z,53.67
2022-08-17T20:14:53.680Z,54.97
2022-08-17T20:17:25.183Z,55.67
2022-08-17T20:19:59.968Z,54.97
2022-08-17T20:22:30.586Z,53.80
2022-08-17T20:25:09.642Z,53.17
2022-08-17T20:27:50.006Z,56.90
2022-08-17T20:30:34.650Z,56.13
2022-08-17T20:33:03.366Z,56.75
2022-08-17T20:35:32.475Z,57.57
2022-08-17T20:38:02.982Z,59.88
2022-08-17T20:40:35.179Z,61.40
2022-08-17T20:43:37.034Z,56.60
2022-08-17T20:46:24.516Z,57.22
2022-08-17T20:48:54.333Z,56.33
2022-08-17T20:51:29.189Z,58.17
2022-08-17T20:54:35.571Z,58.03
2022-08-17T20:57:06.169Z,57.97
2022-08-17T20:59:56.539Z,58.58
2022-08-17T21:02:27.905Z,57.25
2022-08-17T21:05:02.045Z,55.28
2022-08-17T21:07:53.138Z,56.40
2022-08-17T21:10:32.070Z,54.33
2022-08-17T21:13:05.929Z,56.15
2022-08-17T21:15:39.910Z,55.28
2022-08-17T21:18:12.781Z,57.10
2022-08-17T21:20:45.427Z,54.80
2022-08-17T21:23:32.736Z,55.17
2022-08-17T21:26:13.793Z,55.42
2022-08-17T21:29:01.102Z,56.47
2022-08-17T21:31:34.726Z,53.23
2022-08-17T21:34:27.374Z,53.80
2022-08-17T21:36:56.809Z,53.65
2022-08-17T21:39:33.188Z,56.43
2022-08-17T21:42:01.636Z,55.28
2022-08-17T21:44:33.514Z,55.35
2022-08-17T21:47:16.590Z,54.95
2022-08-17T21:49:46.323Z,57.57
2022-08-17T21:52:15.750Z,55.75
2022-08-17T21:54:50.207Z,53.05
2022-08-17T21:57:21.177Z,53.22
2022-08-17T21:59:52.593Z,52.25
2022-08-17T22:02:22.107Z,50.88
2022-08-17T22:05:03.943Z,51.63
2022-08-17T22:07:38.706Z,51.67
2022-08-17T22:10:09.232Z,53.15
2022-08-17T22:12:37.303Z,51.75
2022-08-17T22:15:09.696Z,51.63
2022-08-17T22:17:41.229Z,53.30
2022-08-17T22:20:14.366Z,52.85
2022-08-17T22:23:24.240Z,55.97
2022-08-17T22:26:00.808Z,54.75
2022-08-17T22:28:41.004Z,54.10
2022-08-17T22:31:10.667Z,54.03
2022-08-17T22:33:45.819Z,54.13
2022-08-17T22:36:29.171Z,52.58
2022-08-17T22:38:58.654Z,51.05
2022-08-17T22:41:37.201Z,51.00
2022-08-17T22:44:23.194Z,52.53
2022-08-17T22:47:02.244Z,53.37
2022-08-17T22:49:34.225Z,54.85
2022-08-17T22:52:23.991Z,54.92
2022-08-17T22:55:25.221Z,56.07
2022-08-17T22:58:10.921Z,57.67
2022-08-17T23:00:41.874Z,53.05
2022-08-17T23:03:15.958Z,50.85
2022-08-17T23:05:47.720Z,51.05
2022-08-17T23:08:21.073Z,51.07
2022-08-17T23:10:49.327Z,51.57
2022-08-17T23:13:17.328Z,53.88
2022-08-17T23:15:48.193Z,54.15
2022-08-17T23:18:17.515Z,57.13
2022-08-17T23:20:45.806Z,56.08
2022-08-17T23:23:18.820Z,53.65
2022-08-17T23:25:49.874Z,50.50
2022-08-17T23:28:17.629Z,52.08
2022-08-17T23:30:46.581Z,54.17
2022-08-17T23:33:19.199Z,55.17
2022-08-17T23:35:47.193Z,55.22
2022-08-17T23:38:16.426Z,56.10
2022-08-17T23:40:44.413Z,56.15
2022-08-17T23:43:23.709Z,54.30
2022-08-17T23:45:53.923Z,55.22
2022-08-17T23:48:32.645Z,54.65
2022-08-17T23:51:09.014Z,54.88
2022-08-17T23:53:41.854Z,53.53
2022-08-17T23:56:11.206Z,52.22
2022-08-17T23:58:40.462Z,52.97
